Time;durP1;ratioP1;P1;durP2;ratioP2;P2;SDS_P1;SDS_P2;PMS_P1;PMS_P2;Temp;Humidity;BMP_temperature;BMP_pressure;BME280_temperature;BME280_humidity;BME280_pressure;Samples;Min_cycle;Max_cycle;Signal;HPM_P1;HPM_P2
2023/10/28 00:00:15;;;;;;;9.57;4.80;;;;;;;11.93;65.25;98991.53;677802;29;1296;-91
2023/10/28 00:00:37;;;;;;;10.52;4.70;;;;;;;12.01;65.33;99002.81;682271;28;1236;-90
2023/10/28 00:00:59;;;;;;;12.30;5.25;;;;;;;11.96;65.31;98996.72;680104;29;1356;-91
2023/10/28 00:01:19;;;;;;;9.60;4.95;;;;;;;11.98;65.26;98997.59;675081;29;1300;-90
2023/10/28 00:01:40;;;;;;;7.80;4.63;;;;;;;11.95;65.51;98992.38;669988;29;1171;-90
2023/10/28 00:02:01;;;;;;;5.85;4.30;;;;;;;11.97;65.24;98997.63;672259;29;1452;-91
2023/10/28 00:02:22;;;;;;;6.88;4.30;;;;;;;11.98;65.27;98997.59;675150;29;1214;-91
2023/10/28 00:02:45;;;;;;;6.70;4.43;;;;;;;11.97;65.29;98995.00;675101;29;1185;-90
2023/10/28 00:03:05;;;;;;;7.13;4.70;;;;;;;11.98;65.35;99002.81;673391;29;1406;-91
2023/10/28 00:03:26;;;;;;;6.85;4.75;;;;;;;11.91;65.41;98990.66;674887;29;1235;-90
2023/10/28 00:03:47;;;;;;;7.40;4.88;;;;;;;11.95;65.19;98997.63;680298;29;1784;-90
2023/10/28 00:04:08;;;;;;;7.50;4.90;;;;;;;11.97;65.33;99000.22;678735;29;1303;-90
2023/10/28 00:04:29;;;;;;;6.67;4.80;;;;;;;11.87;65.28;98978.50;672509;29;1224;-90
2023/10/28 00:04:49;;;;;;;7.00;4.37;;;;;;;11.93;65.19;98994.16;674897;29;1317;-90
2023/10/28 00:05:10;;;;;;;6.57;4.40;;;;;;;11.94;65.37;98993.25;674964;29;1308;-90
2023/10/28 00:05:31;;;;;;;6.88;4.20;;;;;;;11.87;65.08;98988.94;672553;29;1282;-90
2023/10/28 00:05:52;;;;;;;4.85;3.90;;;;;;;11.95;65.47;99001.97;667286;29;1673;-90
2023/10/28 00:06:13;;;;;;;5.03;3.70;;;;;;;11.94;65.15;99001.09;672474;29;1261;-90
2023/10/28 00:06:34;;;;;;;5.03;3.70;;;;;;;11.97;65.17;99005.47;682442;28;1757;-91
2023/10/28 00:06:55;;;;;;;5.45;4.05;;;;;;;11.90;65.15;98994.16;680342;29;1287;-90
2023/10/28 00:07:16;;;;;;;6.80;4.57;;;;;;;11.91;65.29;98995.88;674561;29;1302;-90
2023/10/28 00:07:37;;;;;;;7.53;4.80;;;;;;;11.88;65.24;98994.19;675197;29;1192;-90
2023/10/28 00:07:58;;;;;;;7.38;5.00;;;;;;;11.94;65.19;99006.34;675050;29;1379;-90
2023/10/28 00:08:18;;;;;;;6.18;4.93;;;;;;;11.89;65.29;98992.41;672501;29;1301;-90
2023/10/28 00:08:39;;;;;;;6.30;5.00;;;;;;;11.87;65.40;98994.19;677755;29;1399;-91
2023/10/28 00:09:00;;;;;;;6.73;5.10;;;;;;;11.94;65.34;99003.72;674830;29;1180;-90
2023/10/28 00:09:21;;;;;;;10.30;5.40;;;;;;;11.88;65.42;98993.31;675141;29;1343;-90
2023/10/28 00:09:41;;;;;;;10.30;5.60;;;;;;;11.91;65.17;98995.88;671151;29;1636;-90
2023/10/28 00:10:03;;;;;;;10.80;5.80;;;;;;;11.93;65.53;98994.16;672264;29;1268;-91
2023/10/28 00:10:23;;;;;;;9.40;5.60;;;;;;;11.89;65.53;98997.66;675048;29;1275;-90
2023/10/28 00:10:48;;;;;;;8.40;5.50;;;;;;;11.90;65.68;98997.66;672497;29;1207;-90
2023/10/28 00:11:10;;;;;;;8.13;5.57;;;;;;;11.92;65.19;98995.88;676212;29;1247;-90
2023/10/28 00:11:31;;;;;;;7.32;5.47;;;;;;;11.90;65.46;98994.16;675059;29;1223;-90
2023/10/28 00:11:52;;;;;;;8.82;5.20;;;;;;;11.92;65.29;98997.63;675082;29;1434;-90
2023/10/28 00:12:14;;;;;;;8.55;5.38;;;;;;;11.91;65.25;98996.75;670365;29;1314;-90
2023/10/28 00:12:35;;;;;;;8.70;5.47;;;;;;;11.92;65.00;99002.84;672402;29;1279;-90
2023/10/28 00:12:56;;;;;;;6.63;5.45;;;;;;;11.90;65.25;98996.75;675098;29;1259;-90
2023/10/28 00:13:17;;;;;;;6.05;5.30;;;;;;;11.91;65.35;98996.75;672541;29;1241;-90
2023/10/28 00:13:39;;;;;;;6.47;5.40;;;;;;;11.93;65.19;99000.22;674762;29;1252;-90
2023/10/28 00:14:00;;;;;;;7.95;5.45;;;;;;;11.91;65.36;98995.88;672335;29;1230;-91
2023/10/28 00:14:21;;;;;;;8.60;5.60;;;;;;;11.93;65.29;99010.69;671957;29;1349;-89
2023/10/28 00:14:42;;;;;;;8.50;5.43;;;;;;;11.96;65.44;99007.19;672135;29;1276;-90
2023/10/28 00:15:03;;;;;;;11.50;5.90;;;;;;;11.94;65.57;99001.09;669610;29;1301;-90
2023/10/28 00:15:24;;;;;;;12.05;5.90;;;;;;;11.90;65.17;98999.38;677525;29;1257;-90
2023/10/28 00:15:45;;;;;;;15.30;6.07;;;;;;;11.89;65.18;99002.88;669554;29;1300;-90
2023/10/28 00:16:06;;;;;;;11.88;5.50;;;;;;;11.95;65.37;99007.19;672356;29;1184;-90
2023/10/28 00:16:27;;;;;;;10.73;5.53;;;;;;;11.89;65.21;98995.91;674674;29;1180;-90
2023/10/28 00:16:49;;;;;;;8.20;5.28;;;;;;;11.89;65.06;98995.03;674814;29;1974;-90
2023/10/28 00:17:09;;;;;;;7.43;5.30;;;;;;;11.90;65.24;99004.59;671025;29;1461;-91
2023/10/28 00:17:30;;;;;;;10.93;4.67;;;;;;;11.93;65.25;99004.59;669791;29;1350;-90
2023/10/28 00:17:51;;;;;;;11.88;4.68;;;;;;;11.89;65.44;99002.88;672376;29;1597;-90
2023/10/28 00:18:12;;;;;;;12.50;4.68;;;;;;;11.94;65.33;99014.19;672970;29;1449;-90
2023/10/28 00:18:33;;;;;;;7.50;4.60;;;;;;;11.91;65.34;99006.34;674954;29;1227;-90
2023/10/28 00:18:54;;;;;;;6.78;4.35;;;;;;;11.95;65.30;99007.19;672622;29;1226;-91
2023/10/28 00:19:16;;;;;;;7.50;4.20;;;;;;;11.92;65.39;99002.84;672717;29;1221;-90
2023/10/28 00:19:37;;;;;;;7.30;4.25;;;;;;;11.86;65.19;98993.31;672675;29;1290;-90
2023/10/28 00:19:58;;;;;;;7.05;4.20;;;;;;;11.91;65.29;99007.22;672363;29;1351;-90
2023/10/28 00:20:18;;;;;;;6.50;3.95;;;;;;;11.93;65.17;99010.69;667139;29;1232;-90
2023/10/28 00:20:41;;;;;;;6.40;3.83;;;;;;;11.86;65.40;98993.31;669808;29;1212;-90
2023/10/28 00:21:01;;;;;;;6.80;3.97;;;;;;;11.87;65.13;99002.03;672299;29;1275;-90
2023/10/28 00:21:23;;;;;;;7.80;4.10;;;;;;;11.95;65.05;99013.28;672492;29;1396;-90
2023/10/28 00:21:44;;;;;;;7.65;4.10;;;;;;;11.93;65.56;99009.84;675093;29;1309;-91
2023/10/28 00:22:05;;;;;;;6.35;3.80;;;;;;;11.97;65.45;99022.00;677515;29;1233;-90
2023/10/28 00:22:25;;;;;;;5.37;3.80;;;;;;;11.92;65.08;99008.94;671942;29;1292;-90
2023/10/28 00:22:53;;;;;;;5.10;3.80;;;;;;;11.90;65.25;99004.59;674879;29;1354;-90
2023/10/28 00:23:14;;;;;;;6.20;4.20;;;;;;;11.88;65.22;99007.25;675012;29;1282;-90
2023/10/28 00:23:35;;;;;;;6.25;4.25;;;;;;;11.95;65.23;99007.19;680229;29;1521;-90
2023/10/28 00:23:56;;;;;;;8.13;4.40;;;;;;;11.91;65.28;99011.56;667258;29;1288;-90
2023/10/28 00:24:17;;;;;;;7.78;4.45;;;;;;;11.95;65.27;99018.53;674046;29;1267;-90
2023/10/28 00:24:41;;;;;;;9.82;4.70;;;;;;;11.89;65.36;99006.38;674901;29;1477;-90
2023/10/28 00:25:02;;;;;;;9.07;4.63;;;;;;;11.88;65.39;99014.22;674815;29;1424;-90
2023/10/28 00:25:25;;;;;;;8.63;4.43;;;;;;;11.93;65.47;99007.22;677225;29;1276;-90
2023/10/28 00:25:46;;;;;;;6.75;4.10;;;;;;;11.93;65.30;99012.44;674848;29;1276;-89
2023/10/28 00:26:07;;;;;;;6.00;4.10;;;;;;;11.96;65.58;99015.03;674359;29;1294;-90
2023/10/28 00:26:28;;;;;;;5.90;4.30;;;;;;;11.98;65.44;99021.09;672136;29;1263;-90
2023/10/28 00:26:48;;;;;;;5.30;4.33;;;;;;;11.92;65.37;99014.19;672440;29;1172;-89
2023/10/28 00:27:10;;;;;;;5.45;4.10;;;;;;;11.95;65.20;99015.03;669927;29;1191;-90
2023/10/28 00:27:33;;;;;;;5.82;4.10;;;;;;;11.93;65.64;99015.06;675041;29;1454;-90
2023/10/28 00:27:55;;;;;;;6.30;4.30;;;;;;;11.94;65.26;99011.56;677563;29;1224;-90
2023/10/28 00:28:16;;;;;;;6.55;4.28;;;;;;;11.98;65.14;99013.25;669951;29;1286;-90
2023/10/28 00:28:37;;;;;;;6.80;4.45;;;;;;;11.91;65.38;99006.34;674898;29;1236;-90
2023/10/28 00:28:58;;;;;;;6.97;4.40;;;;;;;11.93;65.39;99008.06;667018;29;1217;-90
2023/10/28 00:29:19;;;;;;;6.90;4.43;;;;;;;11.95;65.44;99015.03;669927;29;1168;-91
2023/10/28 00:29:40;;;;;;;6.25;3.72;;;;;;;11.93;65.38;99009.84;669872;29;1349;-90
2023/10/28 00:30:01;;;;;;;6.47;3.80;;;;;;;11.94;65.42;99006.34;674701;29;1503;-89
2023/10/28 00:30:22;;;;;;;7.00;4.10;;;;;;;11.95;65.46;99012.41;677203;29;1365;-90
2023/10/28 00:30:43;;;;;;;6.10;4.20;;;;;;;11.96;65.23;99015.03;677739;29;1280;-90
2023/10/28 00:31:04;;;;;;;6.32;4.07;;;;;;;12.00;65.52;99019.38;672260;29;1359;-90
2023/10/28 00:31:25;;;;;;;6.70;4.30;;;;;;;11.99;65.38;99014.16;675034;29;1148;-90
2023/10/28 00:31:46;;;;;;;8.23;4.75;;;;;;;11.95;65.09;99004.56;683014;29;1229;-91
2023/10/28 00:32:07;;;;;;;6.30;4.40;;;;;;;12.01;65.34;99018.50;673761;29;1275;-90
2023/10/28 00:32:28;;;;;;;5.55;4.07;;;;;;;11.95;65.28;99005.44;672173;29;1233;-90
2023/10/28 00:32:50;;;;;;;5.40;3.80;;;;;;;11.99;65.32;99009.78;675114;29;1182;-90
2023/10/28 00:33:10;;;;;;;5.88;3.88;;;;;;;12.03;65.34;99015.84;677501;29;1510;-91
2023/10/28 00:33:34;;;;;;;6.57;4.10;;;;;;;12.03;65.51;99013.22;670346;29;1278;-90
2023/10/28 00:33:55;;;;;;;8.88;4.32;;;;;;;11.99;65.47;99009.78;675026;29;1270;-90
2023/10/28 00:34:15;;;;;;;9.43;4.60;;;;;;;12.01;65.32;99015.88;678179;29;1153;-91
2023/10/28 00:34:36;;;;;;;7.63;4.50;;;;;;;12.00;65.49;99008.03;674851;29;1318;-91
2023/10/28 00:34:59;;;;;;;5.40;4.30;;;;;;;12.05;65.43;99020.19;677049;29;1260;-90
2023/10/28 00:35:23;;;;;;;4.32;3.90;;;;;;;12.00;65.32;99003.69;671161;29;1266;-90
2023/10/28 00:35:44;;;;;;;5.35;4.30;;;;;;;12.03;65.42;99015.84;680312;29;1372;-90
2023/10/28 00:36:09;;;;;;;6.55;4.30;;;;;;;11.95;65.55;98996.72;676495;29;1297;-90
2023/10/28 00:36:30;;;;;;;7.00;4.00;;;;;;;12.04;65.72;99015.84;672256;29;1226;-90
2023/10/28 00:36:52;;;;;;;6.45;3.80;;;;;;;12.03;65.42;99011.50;674943;29;1436;-90
2023/10/28 00:37:13;;;;;;;6.47;3.92;;;;;;;12.03;65.51;99008.88;674028;29;1194;-90
2023/10/28 00:37:35;;;;;;;6.43;4.10;;;;;;;11.98;65.21;98996.72;669833;29;1088;-90
2023/10/28 00:37:56;;;;;;;5.43;4.22;;;;;;;12.05;65.42;99012.34;676888;29;1239;-90
2023/10/28 00:38:17;;;;;;;4.68;4.10;;;;;;;12.01;65.49;99004.53;680041;29;1225;-91
2023/10/28 00:38:38;;;;;;;5.70;4.22;;;;;;;12.01;65.23;99002.81;677072;29;1281;-91
2023/10/28 00:38:58;;;;;;;7.80;4.23;;;;;;;12.01;65.38;99002.81;674841;29;1251;-90
2023/10/28 00:39:19;;;;;;;7.97;4.30;;;;;;;12.05;65.29;99009.75;674653;29;1233;-90
2023/10/28 00:39:40;;;;;;;6.78;4.20;;;;;;;12.05;65.40;99011.50;669861;29;1227;-91
2023/10/28 00:40:05;;;;;;;5.57;4.28;;;;;;;12.04;65.41;99010.63;669315;29;1725;-90
2023/10/28 00:40:30;;;;;;;7.28;4.55;;;;;;;12.13;65.38;99021.91;672389;29;1273;-90
2023/10/28 00:40:51;;;;;;;6.55;3.95;;;;;;;12.08;65.56;99008.84;672382;29;1399;-90
2023/10/28 00:41:11;;;;;;;6.30;3.80;;;;;;;12.10;65.41;99014.94;667499;29;1378;-90
2023/10/28 00:41:32;;;;;;;6.13;3.93;;;;;;;12.13;65.42;99017.53;675006;29;1160;-90
2023/10/28 00:41:53;;;;;;;7.80;4.40;;;;;;;12.09;65.26;99007.13;672108;29;1391;-90
2023/10/28 00:42:13;;;;;;;6.65;4.43;;;;;;;12.09;65.18;99009.75;673122;29;1253;-90
2023/10/28 00:42:35;;;;;;;6.75;4.05;;;;;;;12.11;65.41;99016.66;669644;29;1217;-89
2023/10/28 00:42:58;;;;;;;5.22;3.65;;;;;;;12.07;65.61;99007.97;671154;29;1412;-90
2023/10/28 00:43:22;;;;;;;6.60;4.15;;;;;;;12.10;65.41;99007.09;679468;29;1406;-90
2023/10/28 00:43:44;;;;;;;6.75;4.70;;;;;;;12.13;65.25;99016.66;677564;29;1128;-91
2023/10/28 00:44:05;;;;;;;8.32;4.88;;;;;;;12.07;65.29;99007.97;667762;29;1221;-90
2023/10/28 00:44:25;;;;;;;7.60;4.47;;;;;;;12.16;65.42;99016.66;677174;29;1299;-90
2023/10/28 00:44:46;;;;;;;8.88;4.50;;;;;;;12.13;65.21;99016.66;677630;29;1158;-90
2023/10/28 00:45:11;;;;;;;7.10;4.22;;;;;;;12.12;65.35;99014.94;673317;29;1253;-90
2023/10/28 00:45:32;;;;;;;6.45;4.45;;;;;;;12.09;65.16;99004.50;674899;29;965;-90
2023/10/28 00:45:56;;;;;;;5.57;4.40;;;;;;;12.08;65.34;99003.63;674852;29;1258;-90
2023/10/28 00:46:17;;;;;;;5.18;4.10;;;;;;;12.08;65.36;99008.84;674896;29;1419;-90
2023/10/28 00:46:38;;;;;;;4.53;3.85;;;;;;;12.11;65.35;99014.06;669701;29;1270;-90
2023/10/28 00:46:58;;;;;;;4.47;4.07;;;;;;;12.11;65.45;99011.44;674803;29;1279;-90
2023/10/28 00:47:20;;;;;;;4.82;4.32;;;;;;;12.09;65.14;99009.75;674809;29;1578;-90
2023/10/28 00:47:43;;;;;;;6.72;4.80;;;;;;;12.09;65.42;98999.28;669877;29;1357;-91
2023/10/28 00:48:04;;;;;;;8.35;4.78;;;;;;;12.09;65.27;99005.34;670498;29;1271;-90
2023/10/28 00:48:31;;;;;;;8.43;4.78;;;;;;;12.11;65.15;99005.34;677482;29;1350;-91
2023/10/28 00:48:53;;;;;;;8.20;4.40;;;;;;;12.09;65.42;99005.34;669486;29;1223;-90
2023/10/28 00:49:14;;;;;;;7.38;4.20;;;;;;;12.12;65.24;99012.31;673494;29;1402;-90
2023/10/28 00:49:35;;;;;;;7.95;4.30;;;;;;;12.15;65.09;99010.56;674780;29;1243;-90
2023/10/28 00:49:58;;;;;;;5.85;4.53;;;;;;;12.09;65.34;99004.50;672279;29;1272;-90
2023/10/28 00:50:19;;;;;;;6.72;4.70;;;;;;;12.12;65.18;99004.47;677406;29;1262;-89
2023/10/28 00:50:40;;;;;;;6.30;4.38;;;;;;;12.11;65.48;99006.22;680330;29;1132;-91
2023/10/28 00:51:01;;;;;;;5.23;4.00;;;;;;;12.11;65.25;98997.50;677475;29;1183;-91
2023/10/28 00:51:22;;;;;;;4.18;3.78;;;;;;;12.12;65.32;98999.25;672412;29;1300;-91
2023/10/28 00:51:45;;;;;;;4.97;4.20;;;;;;;12.18;65.70;99020.13;675090;29;1309;-90
2023/10/28 00:52:07;;;;;;;5.13;4.35;;;;;;;12.13;65.21;99006.22;674762;29;1393;-90
2023/10/28 00:52:28;;;;;;;6.88;4.50;;;;;;;12.14;65.10;99013.16;672072;29;1271;-90
2023/10/28 00:52:52;;;;;;;6.45;4.45;;;;;;;12.16;65.30;99011.44;672303;29;1203;-90
2023/10/28 00:53:15;;;;;;;7.43;4.53;;;;;;;12.10;65.44;99001.88;676066;29;1142;-90
2023/10/28 00:53:36;;;;;;;8.90;4.55;;;;;;;12.12;65.40;99007.09;677375;29;1294;-91
2023/10/28 00:53:57;;;;;;;9.80;4.80;;;;;;;12.16;65.21;99020.13;674399;29;1260;-90
2023/10/28 00:54:19;;;;;;;10.48;4.88;;;;;;;12.18;65.29;99020.13;672399;29;1335;-90
2023/10/28 00:54:40;;;;;;;7.30;4.50;;;;;;;12.13;65.40;99006.22;675192;29;1254;-90
2023/10/28 00:55:02;;;;;;;10.27;4.43;;;;;;;12.10;65.35;99006.25;674894;29;1278;-90
2023/10/28 00:55:24;;;;;;;10.80;4.65;;;;;;;12.11;64.98;99013.19;674696;29;1234;-90
2023/10/28 00:55:46;;;;;;;12.43;5.13;;;;;;;12.11;65.19;99007.97;677193;29;1459;-90
2023/10/28 00:56:08;;;;;;;7.57;5.00;;;;;;;12.10;65.25;99007.09;674306;29;1208;-90
2023/10/28 00:56:29;;;;;;;5.45;4.80;;;;;;;12.13;65.49;99011.44;669683;29;1398;-90
2023/10/28 00:56:50;;;;;;;5.10;4.60;;;;;;;12.10;65.66;99001.88;672359;29;1899;-90
2023/10/28 00:57:10;;;;;;;6.57;4.72;;;;;;;12.11;65.57;99002.75;677305;29;1287;-89
2023/10/28 00:57:33;;;;;;;6.47;4.70;;;;;;;12.22;65.41;99021.81;675986;29;1294;-90
2023/10/28 00:57:54;;;;;;;6.07;4.57;;;;;;;12.14;65.59;99007.94;679956;29;1257;-91
2023/10/28 00:58:16;;;;;;;5.13;4.60;;;;;;;12.15;65.33;98999.22;678068;29;1216;-90
2023/10/28 00:58:39;;;;;;;6.03;4.78;;;;;;;12.18;65.45;99010.53;674951;29;1289;-91
2023/10/28 00:59:01;;;;;;;11.15;5.38;;;;;;;12.22;65.68;99011.38;672247;29;1282;-90
2023/10/28 00:59:23;;;;;;;11.23;5.40;;;;;;;12.26;65.88;99017.44;677652;29;1272;-89
2023/10/28 00:59:44;;;;;;;9.20;5.03;;;;;;;12.29;65.56;99020.91;677648;29;1231;-90
2023/10/28 01:00:06;;;;;;;8.02;4.80;;;;;;;12.23;65.57;99005.25;669432;29;1317;-90
2023/10/28 01:00:29;;;;;;;7.42;5.02;;;;;;;12.31;65.44;99011.28;667002;29;1462;-91
2023/10/28 01:00:50;;;;;;;7.25;5.00;;;;;;;12.34;65.38;99016.53;667334;29;1208;-90
2023/10/28 01:01:12;;;;;;;8.95;5.53;;;;;;;12.37;65.50;99012.13;669515;29;1271;-90
2023/10/28 01:01:33;;;;;;;8.77;5.70;;;;;;;12.36;65.72;99005.19;677536;29;1315;-90
2023/10/28 01:01:54;;;;;;;7.65;5.82;;;;;;;12.34;65.48;99008.69;674434;29;1457;-90
2023/10/28 01:02:17;;;;;;;5.90;5.30;;;;;;;12.38;65.46;99008.63;679294;29;1298;-90
2023/10/28 01:02:40;;;;;;;5.25;4.75;;;;;;;12.37;65.46;98999.06;674718;29;1270;-90
2023/10/28 01:03:00;;;;;;;4.82;4.32;;;;;;;12.36;65.55;98990.38;670079;29;1412;-90
2023/10/28 01:03:22;;;;;;;6.55;4.70;;;;;;;12.40;65.63;98999.06;677138;29;1250;-90
2023/10/28 01:03:43;;;;;;;7.05;4.85;;;;;;;12.43;65.56;99004.25;677350;29;1829;-89
2023/10/28 01:04:05;;;;;;;7.57;5.20;;;;;;;12.43;65.21;98999.88;672695;29;1405;-90
2023/10/28 01:04:25;;;;;;;7.28;5.10;;;;;;;12.48;65.61;99007.72;674656;29;1249;-90
2023/10/28 01:04:46;;;;;;;7.13;5.18;;;;;;;12.45;65.70;98999.88;667109;29;1217;-90
2023/10/28 01:05:13;;;;;;;7.07;4.90;;;;;;;12.50;65.06;99000.72;672153;29;1139;-90
2023/10/28 01:05:34;;;;;;;7.32;4.95;;;;;;;12.46;65.49;98998.97;672193;29;1483;-90
2023/10/28 01:05:57;;;;;;;8.00;5.00;;;;;;;12.46;65.25;98994.63;674798;29;1400;-90
2023/10/28 01:06:18;;;;;;;8.00;5.07;;;;;;;12.47;65.32;98996.38;674827;29;1273;-90
2023/10/28 01:06:39;;;;;;;9.98;4.90;;;;;;;12.49;65.30;98998.97;674935;29;1294;-91
2023/10/28 01:08:55;;;;;;;4.65;4.20;;;;;;;12.53;65.36;99000.66;676484;29;962;-91
2023/10/28 01:09:16;;;;;;;5.15;4.50;;;;;;;12.53;65.24;99000.66;672741;29;1311;-90
2023/10/28 01:09:49;;;;;;;9.82;4.75;;;;;;;12.58;65.28;99004.13;674680;29;1220;-91
2023/10/28 01:10:12;;;;;;;10.07;4.60;;;;;;;12.54;65.43;98994.56;673524;29;1596;-90
2023/10/28 01:10:33;;;;;;;6.15;4.65;;;;;;;12.55;65.18;98998.91;673868;29;1377;-90
2023/10/28 01:10:59;;;;;;;7.35;5.25;;;;;;;12.51;65.22;98991.97;669436;29;1303;-90
2023/10/28 01:11:21;;;;;;;7.70;5.30;;;;;;;12.57;65.39;98999.78;667097;29;1345;-90
2023/10/28 01:11:41;;;;;;;6.00;5.15;;;;;;;12.50;65.36;98992.84;672371;29;1415;-90
2023/10/28 01:12:02;;;;;;;5.13;4.60;;;;;;;12.58;65.07;99009.34;672193;29;1316;-90
2023/10/28 01:12:23;;;;;;;5.72;5.00;;;;;;;12.56;65.11;99005.91;669601;29;1299;-90
2023/10/28 01:12:44;;;;;;;5.53;4.75;;;;;;;12.51;65.01;99002.44;674795;29;1277;-90
2023/10/28 01:13:05;;;;;;;5.80;4.80;;;;;;;12.54;65.00;99001.56;675105;29;1313;-91
2023/10/28 01:13:26;;;;;;;6.05;4.72;;;;;;;12.46;64.89;98996.38;677533;29;1384;-90
2023/10/28 01:13:47;;;;;;;6.72;4.70;;;;;;;12.47;65.20;98995.47;680052;29;1237;-90
2023/10/28 01:14:07;;;;;;;7.22;4.50;;;;;;;12.45;65.35;98997.25;676857;29;1226;-90
2023/10/28 01:14:30;;;;;;;7.22;4.30;;;;;;;12.52;65.08;98998.09;672330;29;1450;-90
2023/10/28 01:14:51;;;;;;;7.28;4.80;;;;;;;12.57;65.18;99007.63;675062;29;1051;-90
2023/10/28 01:15:12;;;;;;;7.53;5.07;;;;;;;12.56;65.18;99000.66;675394;29;1501;-90
2023/10/28 01:15:33;;;;;;;7.38;5.18;;;;;;;12.60;65.23;99007.59;674750;29;1273;-90
2023/10/28 01:15:54;;;;;;;6.93;5.20;;;;;;;12.55;65.23;98996.28;680021;29;1329;-90
2023/10/28 01:16:15;;;;;;;8.05;5.47;;;;;;;12.62;65.02;99004.97;674404;29;1207;-90
2023/10/28 01:16:37;;;;;;;8.20;5.25;;;;;;;12.56;64.70;98995.44;671875;29;1988;-90
2023/10/28 01:16:57;;;;;;;8.15;5.00;;;;;;;12.60;64.91;98997.13;677322;29;1199;-90
2023/10/28 01:17:18;;;;;;;6.70;4.67;;;;;;;12.58;64.84;98992.78;677235;29;1293;-90
2023/10/28 01:17:39;;;;;;;5.93;4.60;;;;;;;12.60;64.87;99004.13;677602;29;1470;-90
2023/10/28 01:17:59;;;;;;;7.63;4.70;;;;;;;12.61;64.84;99004.09;669521;29;1279;-90
2023/10/28 01:18:20;;;;;;;7.65;4.40;;;;;;;12.63;64.92;99006.69;672226;29;1201;-90
2023/10/28 01:18:41;;;;;;;7.25;4.25;;;;;;;12.62;64.90;99007.59;674552;29;1175;-90
2023/10/28 01:19:02;;;;;;;5.43;4.15;;;;;;;12.65;64.98;99007.53;672141;29;1736;-90
2023/10/28 01:19:22;;;;;;;4.63;4.13;;;;;;;12.63;64.76;99001.47;672384;29;1286;-90
2023/10/28 01:19:43;;;;;;;4.90;4.10;;;;;;;12.66;65.08;99003.19;677326;29;1744;-90
2023/10/28 01:20:05;;;;;;;4.78;3.95;;;;;;;12.66;65.05;98997.97;679194;29;1264;-90
2023/10/28 01:20:25;;;;;;;5.60;4.47;;;;;;;12.66;64.87;98995.34;669731;29;1245;-90
2023/10/28 01:20:46;;;;;;;6.65;4.70;;;;;;;12.68;65.04;99004.91;668837;29;1253;-90
2023/10/28 01:21:11;;;;;;;6.80;4.65;;;;;;;12.67;64.98;98992.69;666460;29;1261;-90
2023/10/28 01:21:32;;;;;;;6.18;4.90;;;;;;;12.70;64.98;98991.78;671779;29;1240;-90
2023/10/28 01:21:54;;;;;;;6.70;4.97;;;;;;;12.77;64.97;99008.34;667083;29;1256;-90
2023/10/28 01:22:15;;;;;;;6.57;4.95;;;;;;;12.72;64.90;98995.28;669659;29;1399;-90
2023/10/28 01:22:36;;;;;;;5.70;4.50;;;;;;;12.74;64.79;99004.84;669650;29;1177;-90
2023/10/28 01:22:58;;;;;;;6.97;4.40;;;;;;;12.78;64.88;99002.22;674499;29;1357;-90
2023/10/28 01:23:19;;;;;;;7.47;4.40;;;;;;;12.77;64.75;99003.09;669616;29;1268;-90
2023/10/28 01:23:40;;;;;;;7.63;4.50;;;;;;;12.80;64.65;99003.94;672291;29;1390;-90
2023/10/28 01:24:01;;;;;;;5.80;4.40;;;;;;;12.77;64.86;98996.09;677202;29;1215;-89
2023/10/28 01:24:22;;;;;;;5.85;4.60;;;;;;;12.79;64.52;99003.94;672426;29;1235;-90
2023/10/28 01:24:43;;;;;;;5.63;4.63;;;;;;;12.82;65.03;99012.63;672639;29;1210;-90
2023/10/28 01:25:04;;;;;;;6.40;4.97;;;;;;;12.77;64.92;98988.25;671869;29;1234;-90
2023/10/28 01:25:25;;;;;;;8.38;5.07;;;;;;;12.82;64.78;99003.91;669603;29;1340;-90
2023/10/28 01:25:45;;;;;;;9.52;5.00;;;;;;;12.82;64.78;98996.94;669681;29;1214;-90
2023/10/28 01:26:07;;;;;;;9.43;4.97;;;;;;;12.82;64.71;98996.03;669466;29;1617;-90
2023/10/28 01:26:28;;;;;;;8.27;4.90;;;;;;;12.82;65.07;98996.94;672287;29;1194;-90
2023/10/28 01:26:48;;;;;;;8.68;4.93;;;;;;;12.84;64.96;98995.16;672395;29;1147;-89
2023/10/28 01:27:09;;;;;;;8.90;4.40;;;;;;;12.85;64.77;98994.25;675433;29;1561;-90
2023/10/28 01:27:30;;;;;;;7.97;4.10;;;;;;;12.88;64.88;99002.09;680092;29;1092;-90
2023/10/28 01:27:51;;;;;;;5.50;3.90;;;;;;;12.87;64.84;99004.72;679949;29;1270;-90
2023/10/28 01:28:11;;;;;;;6.57;4.30;;;;;;;12.86;64.92;98993.38;677259;29;1218;-91
2023/10/28 01:28:33;;;;;;;7.50;4.60;;;;;;;12.92;65.00;99000.31;669726;29;1184;-90
2023/10/28 01:28:55;;;;;;;8.30;5.03;;;;;;;12.91;64.93;99001.19;672044;29;1342;-89
2023/10/28 01:29:16;;;;;;;8.40;5.15;;;;;;;12.93;64.85;99003.78;676572;29;1374;-90
2023/10/28 01:29:37;;;;;;;7.43;5.00;;;;;;;12.94;64.78;98995.09;679834;29;1189;-90
2023/10/28 01:29:58;;;;;;;8.94;5.10;;;;;;;12.97;64.99;98997.69;676250;29;1594;-90
2023/10/28 01:30:19;;;;;;;7.60;4.70;;;;;;;12.91;64.80;98990.72;674768;29;1301;-90
2023/10/28 01:30:39;;;;;;;8.10;4.80;;;;;;;12.98;64.64;99002.03;667215;29;1278;-90
2023/10/28 01:31:01;;;;;;;7.00;5.00;;;;;;;12.95;64.84;98995.09;672191;29;1181;-90
2023/10/28 01:31:21;;;;;;;6.90;5.13;;;;;;;12.98;64.80;99004.66;677463;29;1314;-90
2023/10/28 01:31:42;;;;;;;6.90;5.38;;;;;;;12.99;64.59;99003.78;676935;29;1350;-90
2023/10/28 01:32:03;;;;;;;7.20;5.28;;;;;;;13.02;64.80;99004.63;677140;29;1309;-90
2023/10/28 01:32:24;;;;;;;8.25;5.35;;;;;;;13.03;64.83;99005.47;674656;29;1300;-90
2023/10/28 01:32:45;;;;;;;7.05;4.80;;;;;;;12.97;64.73;98995.06;673891;29;1278;-90
2023/10/28 01:33:06;;;;;;;6.30;4.50;;;;;;;13.00;64.88;98995.03;676671;29;1217;-90
2023/10/28 01:33:27;;;;;;;6.93;5.20;;;;;;;12.99;64.47;98995.91;669482;29;1319;-90
2023/10/28 01:33:48;;;;;;;9.55;5.90;;;;;;;12.97;64.60;98989.84;669745;29;1372;-90
2023/10/28 01:34:09;;;;;;;9.95;6.00;;;;;;;13.05;64.86;99008.06;672888;29;1298;-90
2023/10/28 01:34:30;;;;;;;9.20;5.90;;;;;;;13.05;64.70;99006.34;674600;29;1182;-90
2023/10/28 01:34:54;;;;;;;7.93;5.40;;;;;;;13.00;64.85;98995.03;672241;29;1239;-89
2023/10/28 01:35:14;;;;;;;7.25;5.20;;;;;;;13.04;64.83;99002.00;672193;29;1175;-90
2023/10/28 01:35:35;;;;;;;6.45;5.13;;;;;;;13.03;64.42;98994.97;672174;29;1546;-90
2023/10/28 01:35:55;;;;;;;6.20;5.10;;;;;;;13.01;64.59;98988.91;677022;29;1296;-90
2023/10/28 01:36:16;;;;;;;8.02;5.25;;;;;;;12.99;64.60;98988.06;674762;29;1186;-90
2023/10/28 01:36:37;;;;;;;8.23;5.13;;;;;;;13.01;64.70;98992.41;669889;29;1970;-90
2023/10/28 01:36:59;;;;;;;7.68;5.32;;;;;;;12.98;64.69;98994.19;674777;29;1638;-90
2023/10/28 01:37:21;;;;;;;7.70;4.90;;;;;;;13.04;64.64;99009.84;674389;29;1231;-90
2023/10/28 01:37:42;;;;;;;7.28;4.63;;;;;;;13.02;64.71;98998.50;677355;29;1410;-90
2023/10/28 01:38:04;;;;;;;7.22;4.68;;;;;;;12.99;64.75;98990.69;672046;29;1379;-90
2023/10/28 01:38:26;;;;;;;6.78;4.90;;;;;;;13.05;64.65;99002.84;679958;29;1281;-90
2023/10/28 01:38:47;;;;;;;6.88;5.00;;;;;;;12.97;64.70;98987.22;679859;29;1388;-91
2023/10/28 01:39:08;;;;;;;6.35;4.65;;;;;;;12.99;64.69;99003.78;679088;29;1269;-90
2023/10/28 01:39:28;;;;;;;8.63;4.63;;;;;;;13.03;64.89;99008.06;672256;29;1427;-89
2023/10/28 01:39:52;;;;;;;9.15;4.80;;;;;;;12.95;64.64;98992.47;669749;29;1243;-90
2023/10/28 01:40:13;;;;;;;7.53;5.20;;;;;;;12.97;64.77;98995.06;668649;29;1256;-90
2023/10/28 01:40:34;;;;;;;8.60;5.18;;;;;;;12.94;64.91;98995.09;672264;29;1232;-90
2023/10/28 01:40:56;;;;;;;8.85;5.15;;;;;;;13.00;64.69;99000.28;674736;29;1389;-90
2023/10/28 01:41:18;;;;;;;7.85;4.70;;;;;;;12.96;64.71;98993.34;672050;29;1535;-91
2023/10/28 01:41:39;;;;;;;7.72;5.15;;;;;;;12.95;64.85;98996.81;677630;29;1823;-90
2023/10/28 01:42:00;;;;;;;6.80;4.90;;;;;;;12.93;64.45;98994.25;680062;29;1232;-90
2023/10/28 01:42:22;;;;;;;7.00;4.90;;;;;;;12.97;64.53;99006.41;677684;29;1263;-90
2023/10/28 01:42:46;;;;;;;7.97;5.00;;;;;;;12.98;64.54;99010.75;677218;29;1311;-90
2023/10/28 01:43:07;;;;;;;6.93;4.50;;;;;;;12.97;64.56;99010.78;673879;29;1299;-90
2023/10/28 01:43:29;;;;;;;7.03;4.47;;;;;;;12.97;64.57;99006.41;677401;29;1433;-90
2023/10/28 01:43:50;;;;;;;5.05;4.20;;;;;;;12.95;64.65;99002.94;674118;29;1273;-90
2023/10/28 01:44:11;;;;;;;6.28;4.60;;;;;;;12.90;64.57;98994.22;675923;29;1232;-90
2023/10/28 01:44:34;;;;;;;6.45;4.65;;;;;;;12.89;64.75;98993.38;672425;29;1219;-90
2023/10/28 01:44:55;;;;;;;6.30;4.70;;;;;;;12.89;64.80;99003.84;667029;29;1400;-90
2023/10/28 01:45:17;;;;;;;9.67;4.77;;;;;;;12.87;64.84;99000.38;671562;29;1245;-90